createdAt,value
2018-03-14T00:01:28.126Z,12.97
2018-03-14T00:03:55.756Z,15.80
2018-03-14T00:06:23.351Z,14.30
2018-03-14T00:08:50.983Z,11.20
2018-03-14T00:11:18.604Z,12.17
2018-03-14T00:13:46.246Z,14.00
2018-03-14T00:16:13.869Z,14.47
2018-03-14T00:18:41.510Z,13.07
2018-03-14T00:21:09.170Z,13.10
2018-03-14T00:23:36.854Z,12.40
2018-03-14T00:26:04.459Z,12.47
2018-03-14T00:28:32.081Z,11.53
2018-03-14T00:30:59.678Z,13.80
2018-03-14T00:33:27.331Z,12.50
2018-03-14T00:35:54.958Z,12.43
2018-03-14T00:38:22.772Z,12.20
2018-03-14T00:40:50.425Z,11.70
2018-03-14T00:43:18.188Z,12.30
2018-03-14T00:45:45.795Z,12.23
2018-03-14T00:48:13.442Z,10.90
2018-03-14T00:50:41.048Z,13.30
2018-03-14T00:53:08.677Z,13.87
2018-03-14T00:55:36.305Z,13.00
2018-03-14T00:58:03.935Z,13.13
2018-03-14T01:00:31.538Z,14.10
2018-03-14T01:02:59.241Z,14.10
2018-03-14T01:05:26.865Z,12.57
2018-03-14T01:07:54.698Z,13.57
2018-03-14T01:10:22.319Z,14.77
2018-03-14T01:12:49.977Z,13.00
2018-03-14T01:15:17.739Z,12.87
2018-03-14T01:17:45.414Z,12.10
2018-03-14T01:20:13.009Z,12.80
2018-03-14T01:22:40.698Z,13.50
2018-03-14T01:25:08.342Z,13.20
2018-03-14T01:27:35.989Z,13.77
2018-03-14T01:30:03.573Z,14.30
2018-03-14T01:32:31.178Z,14.50
2018-03-14T01:34:58.826Z,13.63
2018-03-14T01:37:26.420Z,15.80
2018-03-14T01:39:54.210Z,14.67
2018-03-14T01:42:21.961Z,14.50
2018-03-14T01:44:49.689Z,15.10
2018-03-14T01:47:17.307Z,14.30
2018-03-14T01:49:44.931Z,16.30
2018-03-14T01:52:12.530Z,13.73
2018-03-14T01:54:40.164Z,15.40
2018-03-14T01:57:07.808Z,14.53
2018-03-14T01:59:35.427Z,13.83
2018-03-14T02:02:03.026Z,18.03
2018-03-14T02:04:30.722Z,16.47
2018-03-14T02:06:58.326Z,15.53
2018-03-14T02:09:25.969Z,15.30
2018-03-14T02:11:53.586Z,15.03
2018-03-14T02:14:21.241Z,15.40
2018-03-14T02:16:48.926Z,14.50
2018-03-14T02:19:16.571Z,14.97
2018-03-14T02:21:44.166Z,14.40
2018-03-14T02:24:11.813Z,15.90
2018-03-14T02:26:39.429Z,15.73
2018-03-14T02:29:07.079Z,15.40
2018-03-14T02:31:34.686Z,16.30
2018-03-14T02:34:02.322Z,14.63
2018-03-14T02:36:41.922Z,13.90
2018-03-14T02:39:09.550Z,15.47
2018-03-14T02:41:37.171Z,15.97
2018-03-14T02:44:04.874Z,16.83
2018-03-14T02:46:32.507Z,15.30
2018-03-14T02:49:00.146Z,15.10
2018-03-14T02:51:27.765Z,16.00
2018-03-14T02:53:55.365Z,15.93
2018-03-14T02:56:23.010Z,14.73
2018-03-14T02:58:50.619Z,16.17
2018-03-14T03:01:18.254Z,17.53
2018-03-14T03:03:45.854Z,16.30
2018-03-14T03:06:13.474Z,15.30
2018-03-14T03:08:41.065Z,15.83
2018-03-14T03:11:08.702Z,18.50
2018-03-14T03:13:36.388Z,16.03
2018-03-14T03:16:03.991Z,17.63
2018-03-14T03:18:31.581Z,18.33
2018-03-14T03:20:59.207Z,17.00
2018-03-14T03:23:26.907Z,16.43
2018-03-14T03:25:54.541Z,18.23
2018-03-14T03:28:22.143Z,16.77
2018-03-14T03:30:49.767Z,17.27
2018-03-14T03:33:17.385Z,18.30
2018-03-14T03:35:45.006Z,17.73
2018-03-14T03:38:12.654Z,16.30
2018-03-14T03:40:40.288Z,16.87
2018-03-14T03:43:07.866Z,17.80
2018-03-14T03:45:35.518Z,16.90
2018-03-14T03:48:03.121Z,15.80
2018-03-14T03:50:30.896Z,17.03
2018-03-14T03:52:58.502Z,19.23
2018-03-14T03:55:26.130Z,20.00
2018-03-14T03:57:53.746Z,16.90
2018-03-14T04:00:21.370Z,17.57
2018-03-14T04:02:49.075Z,18.50
2018-03-14T04:05:16.702Z,19.30
2018-03-14T04:07:44.314Z,18.07
2018-03-14T04:10:11.934Z,18.90
2018-03-14T04:12:39.538Z,19.63
2018-03-14T04:15:07.170Z,17.80
2018-03-14T04:17:34.778Z,18.93
2018-03-14T04:20:02.406Z,20.80
2018-03-14T04:22:30.013Z,19.93
2018-03-14T04:24:57.642Z,22.50
2018-03-14T04:27:25.255Z,23.30
2018-03-14T04:29:52.957Z,25.80
2018-03-14T04:32:20.550Z,22.77
2018-03-14T04:34:48.338Z,25.80
2018-03-14T04:37:16.031Z,26.77
2018-03-14T04:39:43.769Z,24.53
2018-03-14T04:42:11.436Z,22.73
2018-03-14T04:44:39.055Z,23.87
2018-03-14T04:47:06.698Z,26.07
2018-03-14T04:49:34.318Z,25.20
2018-03-14T04:52:01.924Z,24.37
2018-03-14T04:54:29.559Z,26.73
2018-03-14T04:56:57.154Z,24.63
2018-03-14T04:59:24.796Z,26.30
2018-03-14T05:01:52.407Z,27.13
2018-03-14T05:04:20.026Z,25.87
2018-03-14T05:06:47.622Z,27.50
2018-03-14T05:09:15.274Z,25.90
2018-03-14T05:11:42.922Z,26.60
2018-03-14T05:14:10.614Z,28.70
2018-03-14T05:16:38.215Z,23.87
2018-03-14T05:19:05.838Z,24.37
2018-03-14T05:21:33.431Z,24.63
2018-03-14T05:24:01.076Z,25.00
2018-03-14T05:26:28.681Z,23.20
2018-03-14T05:28:56.327Z,26.03
2018-03-14T05:31:23.934Z,24.80
2018-03-14T05:33:51.571Z,23.83
2018-03-14T05:36:19.176Z,23.97
2018-03-14T05:38:46.816Z,26.37
2018-03-14T05:41:14.496Z,34.90
2018-03-14T05:43:42.157Z,24.40
2018-03-14T05:46:09.788Z,23.50
2018-03-14T05:48:37.420Z,24.00
2018-03-14T05:51:05.036Z,23.70
2018-03-14T05:53:32.851Z,24.60
2018-03-14T05:56:00.446Z,24.73
2018-03-14T05:58:28.334Z,26.87
2018-03-14T06:00:55.934Z,23.20
2018-03-14T06:03:23.718Z,24.53
2018-03-14T06:05:51.532Z,24.07
2018-03-14T06:08:19.145Z,25.57
2018-03-14T06:10:46.783Z,28.30
2018-03-14T06:13:14.454Z,23.27
2018-03-14T06:15:42.046Z,26.07
2018-03-14T06:18:09.698Z,26.97
2018-03-14T06:20:37.310Z,24.63
2018-03-14T06:23:05.058Z,27.47
2018-03-14T06:25:32.694Z,26.00
2018-03-14T06:28:00.425Z,25.13
2018-03-14T06:30:28.077Z,26.07
2018-03-14T06:32:55.703Z,25.17
2018-03-14T06:35:23.303Z,25.77
2018-03-14T06:37:50.942Z,25.20
2018-03-14T06:40:18.570Z,25.73
2018-03-14T06:42:46.325Z,25.87
2018-03-14T06:45:13.949Z,26.20
2018-03-14T06:47:41.570Z,23.67
2018-03-14T06:50:09.182Z,23.93
2018-03-14T06:52:36.814Z,26.20
2018-03-14T06:55:04.998Z,26.70
2018-03-14T06:57:32.677Z,25.53
2018-03-14T07:00:12.021Z,26.00
2018-03-14T07:02:48.986Z,28.80
2018-03-14T07:05:30.093Z,27.83
2018-03-14T07:07:57.823Z,27.93
2018-03-14T07:10:25.423Z,27.87
2018-03-14T07:12:53.529Z,25.73
2018-03-14T07:15:21.141Z,26.57
2018-03-14T07:17:49.255Z,27.33
2018-03-14T07:20:16.971Z,26.70
2018-03-14T07:22:44.633Z,26.97
2018-03-14T07:25:12.225Z,30.00
2018-03-14T07:27:39.875Z,28.93
2018-03-14T07:30:07.536Z,28.00
2018-03-14T07:32:35.198Z,24.67
2018-03-14T07:35:02.817Z,25.93
2018-03-14T07:37:30.469Z,24.67
2018-03-14T07:39:58.077Z,27.13
2018-03-14T07:42:25.742Z,27.60
2018-03-14T07:44:53.331Z,27.77
2018-03-14T07:47:21.018Z,27.23
2018-03-14T07:49:48.616Z,26.43
2018-03-14T07:52:16.279Z,25.27
2018-03-14T07:54:43.871Z,27.50
2018-03-14T07:57:11.498Z,26.33
2018-03-14T07:59:39.085Z,28.23
2018-03-14T08:02:06.711Z,27.60
2018-03-14T08:04:34.299Z,24.93
2018-03-14T08:07:01.975Z,26.47
2018-03-14T08:09:29.567Z,28.13
2018-03-14T08:11:57.319Z,26.03
2018-03-14T08:14:24.909Z,26.57
2018-03-14T08:16:52.540Z,27.67
2018-03-14T08:19:20.171Z,30.07
2018-03-14T08:21:47.825Z,25.27
2018-03-14T08:24:15.418Z,23.47
2018-03-14T08:26:43.074Z,25.10
2018-03-14T08:29:10.682Z,24.83
2018-03-14T08:31:38.301Z,23.93
2018-03-14T08:34:05.979Z,22.50
2018-03-14T08:36:33.610Z,22.50
2018-03-14T08:39:01.218Z,23.67
2018-03-14T08:41:28.914Z,23.77
2018-03-14T08:43:56.479Z,25.93
2018-03-14T08:46:24.102Z,20.40
2018-03-14T08:48:51.808Z,21.47
2018-03-14T08:51:19.450Z,20.37
2018-03-14T08:53:47.042Z,21.90
2018-03-14T08:56:14.643Z,22.43
2018-03-14T08:58:42.293Z,20.10
2018-03-14T09:01:09.936Z,17.63
2018-03-14T09:03:37.651Z,18.90
2018-03-14T09:06:05.249Z,18.70
2018-03-14T09:08:32.885Z,18.27
2018-03-14T09:11:00.506Z,17.83
2018-03-14T09:13:28.107Z,17.07
2018-03-14T09:15:55.731Z,16.13
2018-03-14T09:18:23.322Z,13.80
2018-03-14T09:20:50.955Z,13.17
2018-03-14T09:23:18.559Z,17.17
2018-03-14T09:25:46.326Z,17.67
2018-03-14T09:28:13.922Z,16.47
2018-03-14T09:30:41.558Z,14.70
2018-03-14T09:33:09.156Z,13.13
2018-03-14T09:35:36.786Z,16.23
2018-03-14T09:38:04.386Z,14.03
2018-03-14T09:40:32.061Z,15.17
2018-03-14T09:42:59.690Z,13.90
2018-03-14T09:45:27.311Z,15.50
2018-03-14T09:47:54.923Z,14.33
2018-03-14T09:50:22.590Z,16.27
2018-03-14T09:52:50.175Z,15.00
2018-03-14T09:55:17.810Z,15.77
2018-03-14T09:57:45.402Z,14.93
2018-03-14T10:00:13.214Z,15.13
2018-03-14T10:02:40.819Z,14.70
2018-03-14T10:05:08.600Z,14.27
2018-03-14T10:07:36.195Z,14.97
2018-03-14T10:10:03.823Z,14.57
2018-03-14T10:12:31.439Z,16.43
2018-03-14T10:14:59.075Z,15.27
2018-03-14T10:17:26.804Z,15.10
2018-03-14T10:19:54.523Z,18.30
2018-03-14T10:22:22.123Z,16.40
2018-03-14T10:24:49.797Z,15.27
2018-03-14T10:27:17.482Z,16.37
2018-03-14T10:29:45.138Z,14.57
2018-03-14T10:32:12.731Z,13.80
2018-03-14T10:34:40.367Z,14.67
2018-03-14T10:37:07.966Z,15.27
2018-03-14T10:39:35.594Z,14.20
2018-03-14T10:42:03.225Z,14.20
2018-03-14T10:44:30.842Z,12.23
2018-03-14T10:46:58.602Z,12.87
2018-03-14T10:49:26.206Z,13.30
2018-03-14T10:51:53.847Z,12.47
2018-03-14T10:54:21.579Z,10.57
2018-03-14T10:56:49.174Z,11.03
2018-03-14T10:59:16.903Z,11.87
2018-03-14T11:01:47.447Z,11.23
2018-03-14T11:04:15.075Z,9.97
2018-03-14T11:06:42.722Z,11.27
2018-03-14T11:09:10.358Z,11.30
2018-03-14T11:11:37.990Z,11.27
2018-03-14T11:14:05.610Z,11.20
2018-03-14T11:16:33.237Z,9.70
2018-03-14T11:19:00.850Z,9.20
2018-03-14T11:21:28.588Z,9.30
2018-03-14T11:23:56.170Z,8.73
2018-03-14T11:26:23.845Z,9.00
2018-03-14T11:28:51.442Z,9.60
2018-03-14T11:31:19.084Z,9.50
2018-03-14T11:33:46.858Z,9.93
2018-03-14T11:36:14.508Z,10.73
2018-03-14T11:38:42.102Z,9.80
2018-03-14T11:41:09.722Z,8.80
2018-03-14T11:43:37.328Z,9.57
2018-03-14T11:46:04.958Z,8.43
2018-03-14T11:48:32.559Z,8.63
2018-03-14T11:51:00.204Z,9.90
2018-03-14T11:53:27.806Z,11.20
2018-03-14T11:55:55.423Z,8.53
2018-03-14T11:58:23.039Z,7.37
2018-03-14T12:00:50.803Z,7.93
2018-03-14T12:03:18.399Z,8.83
2018-03-14T12:05:46.143Z,8.40
2018-03-14T12:08:13.740Z,9.30
2018-03-14T12:10:41.478Z,8.47
2018-03-14T12:13:09.098Z,9.17
2018-03-14T12:15:36.699Z,10.07
2018-03-14T12:18:04.324Z,8.07
2018-03-14T12:20:31.910Z,9.50
2018-03-14T12:22:59.542Z,7.50
2018-03-14T12:25:27.138Z,8.23
2018-03-14T12:27:54.787Z,6.90
2018-03-14T12:30:22.386Z,8.10
2018-03-14T12:32:50.010Z,8.20
2018-03-14T12:35:17.608Z,7.90
2018-03-14T12:37:45.237Z,8.50
2018-03-14T12:40:12.894Z,9.33
2018-03-14T12:42:40.517Z,10.70
2018-03-14T12:45:08.126Z,9.87
2018-03-14T12:47:35.835Z,11.10
2018-03-14T12:50:03.408Z,13.90
2018-03-14T12:52:31.081Z,11.50
2018-03-14T12:54:58.682Z,10.17
2018-03-14T12:57:26.474Z,10.90
2018-03-14T12:59:54.179Z,11.17
2018-03-14T13:02:21.903Z,12.33
2018-03-14T13:04:49.514Z,10.90
2018-03-14T13:07:17.142Z,11.10
2018-03-14T13:09:44.743Z,9.63
2018-03-14T13:12:12.372Z,10.60
2018-03-14T13:14:39.984Z,13.17
2018-03-14T13:17:07.610Z,10.20
2018-03-14T13:19:35.214Z,10.10
2018-03-14T13:22:02.848Z,9.47
2018-03-14T13:24:30.562Z,9.53
2018-03-14T13:26:58.182Z,8.30
2018-03-14T13:29:25.886Z,9.90
2018-03-14T13:31:53.546Z,9.10
2018-03-14T13:34:21.143Z,8.00
2018-03-14T13:36:48.838Z,9.97
2018-03-14T13:39:16.438Z,8.33
2018-03-14T13:41:44.071Z,7.40
2018-03-14T13:44:11.703Z,7.57
2018-03-14T13:46:39.362Z,9.87
2018-03-14T13:49:06.967Z,6.50
2018-03-14T13:51:34.674Z,5.57
2018-03-14T13:54:02.306Z,6.23
2018-03-14T13:56:29.914Z,5.93
2018-03-14T13:58:57.718Z,5.67
2018-03-14T14:01:25.339Z,7.17
2018-03-14T14:03:52.947Z,6.47
2018-03-14T14:06:20.534Z,6.97
2018-03-14T14:08:48.192Z,6.80
2018-03-14T14:11:15.787Z,6.07
2018-03-14T14:13:43.410Z,5.50
2018-03-14T14:16:11.020Z,6.93
2018-03-14T14:18:38.663Z,16.40
2018-03-14T14:21:06.253Z,5.50
2018-03-14T14:23:33.944Z,7.97
2018-03-14T14:26:01.564Z,7.20
2018-03-14T14:28:29.207Z,7.40
2018-03-14T14:30:56.806Z,7.00
2018-03-14T14:33:24.438Z,6.17
2018-03-14T14:35:52.035Z,6.20
2018-03-14T14:38:19.667Z,6.03
2018-03-14T14:40:47.263Z,6.87
2018-03-14T14:43:14.928Z,7.10
2018-03-14T14:45:42.528Z,6.57
2018-03-14T14:48:10.150Z,7.13
2018-03-14T14:50:37.756Z,6.80
2018-03-14T14:53:05.461Z,6.73
2018-03-14T14:55:33.050Z,7.03
2018-03-14T14:58:00.686Z,8.83
2018-03-14T15:00:28.269Z,6.60
2018-03-14T15:02:55.911Z,5.60
2018-03-14T15:05:23.516Z,5.93
2018-03-14T15:07:51.135Z,5.33
2018-03-14T15:10:18.875Z,6.30
2018-03-14T15:12:46.615Z,6.37
2018-03-14T15:15:14.213Z,7.07
2018-03-14T15:17:41.825Z,6.37
2018-03-14T15:20:09.439Z,6.30
2018-03-14T15:22:37.102Z,5.97
2018-03-14T15:25:04.699Z,5.53
2018-03-14T15:27:32.294Z,6.10
2018-03-14T15:29:59.912Z,5.37
2018-03-14T15:32:27.542Z,6.10
2018-03-14T15:34:55.162Z,7.10
2018-03-14T15:37:22.807Z,6.10
2018-03-14T15:39:50.394Z,6.43
2018-03-14T15:42:18.027Z,9.27
2018-03-14T15:44:45.640Z,5.57
2018-03-14T15:47:13.275Z,4.87
2018-03-14T15:49:40.881Z,5.50
2018-03-14T15:52:08.558Z,6.03
2018-03-14T15:54:36.163Z,5.30
2018-03-14T15:57:04.064Z,5.27
2018-03-14T15:59:31.642Z,5.23
2018-03-14T16:01:59.371Z,14.53
2018-03-14T16:04:26.976Z,4.60
2018-03-14T16:06:54.575Z,5.00
2018-03-14T16:09:22.203Z,7.00
2018-03-14T16:11:49.821Z,5.93
2018-03-14T16:14:17.457Z,4.60
2018-03-14T16:16:45.047Z,4.70
2018-03-14T16:19:12.680Z,5.10
2018-03-14T16:21:40.294Z,5.30
2018-03-14T16:24:07.928Z,4.63
2018-03-14T16:26:35.570Z,4.80
2018-03-14T16:29:03.282Z,4.60
2018-03-14T16:31:30.873Z,4.40
2018-03-14T16:33:58.490Z,6.80
2018-03-14T16:36:26.086Z,4.37
2018-03-14T16:38:53.720Z,4.53
2018-03-14T16:41:21.359Z,5.10
2018-03-14T16:43:48.982Z,3.93
2018-03-14T16:46:16.572Z,4.47
2018-03-14T16:48:44.203Z,4.47
2018-03-14T16:51:11.798Z,4.37
2018-03-14T16:53:39.417Z,4.47
2018-03-14T16:56:07.061Z,4.50
2018-03-14T16:58:34.694Z,4.27
2018-03-14T17:01:02.287Z,4.40
2018-03-14T17:03:29.909Z,4.03
2018-03-14T17:05:57.534Z,3.93
2018-03-14T17:08:25.148Z,4.50
2018-03-14T17:10:52.770Z,4.50
2018-03-14T17:13:20.386Z,4.40
2018-03-14T17:15:48.142Z,4.27
2018-03-14T17:18:17.671Z,4.73
2018-03-14T17:20:45.259Z,4.60
2018-03-14T17:23:12.927Z,4.50
2018-03-14T17:25:41.318Z,4.13
2018-03-14T17:28:08.952Z,4.83
2018-03-14T17:30:36.631Z,4.77
2018-03-14T17:33:06.169Z,7.40
2018-03-14T17:35:33.766Z,5.73
2018-03-14T17:38:01.429Z,4.23
2018-03-14T17:40:29.039Z,4.00
2018-03-14T17:42:59.635Z,4.00
2018-03-14T17:45:27.246Z,4.10
2018-03-14T17:48:01.730Z,3.70
2018-03-14T17:50:29.321Z,3.90
2018-03-14T17:52:56.941Z,5.33
2018-03-14T17:55:24.838Z,4.20
2018-03-14T17:57:52.503Z,4.37
2018-03-14T18:00:20.126Z,4.67
2018-03-14T18:02:47.827Z,4.13
2018-03-14T18:05:15.435Z,3.97
2018-03-14T18:07:43.055Z,4.23
2018-03-14T18:10:10.671Z,4.27
2018-03-14T18:12:38.301Z,4.50
2018-03-14T18:15:05.893Z,4.23
2018-03-14T18:17:33.531Z,5.33
2018-03-14T18:20:01.121Z,5.40
2018-03-14T18:22:31.951Z,5.30
2018-03-14T18:24:59.561Z,10.23
2018-03-14T18:27:27.473Z,6.90
2018-03-14T18:29:55.027Z,4.90
2018-03-14T18:32:22.830Z,5.40
2018-03-14T18:34:51.716Z,5.20
2018-03-14T18:37:19.884Z,5.70
2018-03-14T18:39:47.538Z,5.10
2018-03-14T18:42:15.202Z,4.90
2018-03-14T18:44:42.795Z,3.80
2018-03-14T18:47:10.431Z,4.23
2018-03-14T18:49:38.024Z,4.50
2018-03-14T18:52:07.168Z,4.13
2018-03-14T18:54:34.769Z,4.13
2018-03-14T18:57:02.453Z,5.20
2018-03-14T18:59:30.078Z,4.80
2018-03-14T19:01:57.708Z,4.03
2018-03-14T19:04:25.320Z,6.90
2018-03-14T19:06:52.931Z,6.70
2018-03-14T19:09:20.534Z,4.27
2018-03-14T19:11:48.159Z,4.23
2018-03-14T19:14:15.763Z,3.73
2018-03-14T19:16:44.304Z,3.77
2018-03-14T19:19:11.963Z,4.43
2018-03-14T19:21:39.633Z,4.13
2018-03-14T19:24:07.253Z,3.57
2018-03-14T19:26:34.914Z,5.07
2018-03-14T19:29:02.505Z,4.10
2018-03-14T19:31:30.178Z,4.23
2018-03-14T19:33:57.794Z,4.90
2018-03-14T19:36:25.436Z,4.40
2018-03-14T19:38:53.220Z,4.23
2018-03-14T19:41:20.802Z,4.13
2018-03-14T19:43:48.448Z,5.37
2018-03-14T19:46:16.076Z,5.10
2018-03-14T19:48:43.684Z,4.73
2018-03-14T19:51:11.298Z,4.80
2018-03-14T19:53:38.901Z,4.60
2018-03-14T19:56:06.608Z,5.13
2018-03-14T19:58:34.224Z,4.30
2018-03-14T20:01:04.267Z,4.67
2018-03-14T20:03:31.888Z,5.23
2018-03-14T20:05:59.530Z,5.80
2018-03-14T20:08:27.143Z,9.40
2018-03-14T20:10:54.772Z,5.13
2018-03-14T20:13:22.527Z,4.17
2018-03-14T20:15:50.261Z,5.87
2018-03-14T20:18:19.630Z,5.17
2018-03-14T20:20:47.244Z,5.27
2018-03-14T20:23:14.866Z,7.53
2018-03-14T20:25:42.522Z,5.70
2018-03-14T20:28:10.491Z,5.10
2018-03-14T20:30:38.173Z,5.80
2018-03-14T20:33:05.867Z,5.17
2018-03-14T20:35:33.564Z,5.97
2018-03-14T20:38:01.212Z,12.20
2018-03-14T20:40:28.857Z,6.87
2018-03-14T20:42:56.442Z,6.00
2018-03-14T20:45:24.058Z,4.70
2018-03-14T20:47:51.666Z,6.57
2018-03-14T20:50:19.291Z,5.47
2018-03-14T20:52:47.337Z,5.27
2018-03-14T20:55:15.600Z,5.40
2018-03-14T20:57:43.203Z,5.13
2018-03-14T21:00:10.871Z,7.00
2018-03-14T21:02:38.485Z,6.00
2018-03-14T21:05:06.114Z,6.30
2018-03-14T21:07:33.810Z,6.60
2018-03-14T21:10:01.458Z,7.53
2018-03-14T21:12:29.056Z,7.30
2018-03-14T21:14:56.687Z,6.83
2018-03-14T21:17:24.347Z,5.77
2018-03-14T21:19:52.022Z,6.20
2018-03-14T21:22:19.597Z,8.60
2018-03-14T21:24:47.215Z,7.60
2018-03-14T21:27:14.807Z,7.50
2018-03-14T21:29:42.543Z,7.87
2018-03-14T21:32:10.139Z,7.20
2018-03-14T21:34:37.774Z,7.23
2018-03-14T21:37:05.369Z,8.87
2018-03-14T21:39:33.010Z,8.63
2018-03-14T21:42:00.717Z,9.03
2018-03-14T21:44:28.339Z,10.00
2018-03-14T21:46:56.729Z,8.90
2018-03-14T21:49:27.881Z,9.90
2018-03-14T21:51:55.482Z,9.30
2018-03-14T21:54:23.118Z,9.50
2018-03-14T21:56:50.704Z,8.43
2018-03-14T21:59:18.311Z,10.20
2018-03-14T22:01:46.060Z,8.40
2018-03-14T22:04:13.644Z,10.23
2018-03-14T22:06:41.289Z,9.33
2018-03-14T22:09:08.903Z,11.47
2018-03-14T22:11:36.638Z,10.07
2018-03-14T22:14:04.169Z,9.57
2018-03-14T22:16:31.799Z,8.93
2018-03-14T22:18:59.574Z,10.40
2018-03-14T22:21:27.191Z,9.03
2018-03-14T22:23:54.787Z,9.63
2018-03-14T22:26:22.399Z,10.67
2018-03-14T22:28:50.003Z,10.43
2018-03-14T22:31:17.658Z,8.93
2018-03-14T22:33:45.374Z,9.47
2018-03-14T22:36:13.019Z,10.47
2018-03-14T22:38:40.594Z,10.67
2018-03-14T22:41:08.900Z,11.60
2018-03-14T22:43:36.609Z,9.93
2018-03-14T22:46:04.247Z,10.57
2018-03-14T22:48:32.028Z,10.23
2018-03-14T22:50:59.804Z,10.33
2018-03-14T22:53:27.412Z,10.00
2018-03-14T22:55:55.066Z,10.60
2018-03-14T22:58:22.662Z,10.03
2018-03-14T23:00:50.304Z,10.67
2018-03-14T23:03:17.917Z,11.20
2018-03-14T23:05:45.556Z,11.97
2018-03-14T23:08:13.124Z,10.50
2018-03-14T23:10:40.751Z,11.90
2018-03-14T23:13:08.353Z,12.00
2018-03-14T23:15:36.004Z,10.70
2018-03-14T23:18:03.595Z,10.43
2018-03-14T23:20:31.242Z,9.67
2018-03-14T23:22:58.851Z,11.27
2018-03-14T23:25:26.528Z,10.77
2018-03-14T23:27:54.111Z,10.97
2018-03-14T23:30:21.751Z,11.60
2018-03-14T23:32:49.368Z,10.60
2018-03-14T23:35:17.015Z,10.20
2018-03-14T23:37:44.627Z,11.73
2018-03-14T23:40:12.246Z,12.57
2018-03-14T23:42:39.838Z,10.17
2018-03-14T23:45:07.614Z,11.10
2018-03-14T23:47:35.204Z,10.20
2018-03-14T23:50:02.834Z,11.20
2018-03-14T23:52:30.464Z,10.27
2018-03-14T23:54:58.088Z,12.30
2018-03-14T23:57:25.672Z,10.60
2018-03-14T23:59:53.290Z,10.70
